Time;durP1;ratioP1;P1;durP2;ratioP2;P2;SDS_P1;SDS_P2;PMS_P1;PMS_P2;Temp;Humidity;BMP_temperature;BMP_pressure;BME280_temperature;BME280_humidity;BME280_pressure;Samples;Min_cycle;Max_cycle;Signal;HPM_P1;HPM_P2
2021/04/07 00:01:19;;;;;;;5.82;2.28;;;3.40;92.30;;;;;;5062163;28;20196;-70
2021/04/07 00:04:04;;;;;;;2.60;1.63;;;3.30;92.00;;;;;;5062870;28;20227;-71
2021/04/07 00:06:50;;;;;;;4.40;2.22;;;3.20;91.90;;;;;;5057830;28;20239;-70
2021/04/07 00:09:35;;;;;;;6.53;2.10;;;3.00;91.70;;;;;;5063404;28;20254;-71
2021/04/07 00:12:21;;;;;;;7.28;2.08;;;3.10;92.10;;;;;;5063473;28;20208;-69
2021/04/07 00:15:08;;;;;;;8.35;1.85;;;3.20;91.90;;;;;;5056706;28;20211;-70
2021/04/07 00:17:54;;;;;;;6.18;1.52;;;3.30;91.60;;;;;;5063642;28;20251;-70
2021/04/07 00:20:39;;;;;;;7.82;2.10;;;3.30;91.30;;;;;;5061608;28;20288;-70
2021/04/07 00:23:25;;;;;;;4.43;2.28;;;3.20;91.00;;;;;;5062167;28;20247;-70
2021/04/07 00:26:10;;;;;;;5.32;1.85;;;3.20;90.70;;;;;;5060600;28;20673;-70
2021/04/07 00:28:56;;;;;;;8.20;1.90;;;3.20;91.00;;;;;;5066030;28;20240;-69
2021/04/07 00:31:41;;;;;;;2.55;1.50;;;3.10;91.00;;;;;;5058719;28;20208;-68
2021/04/07 00:34:26;;;;;;;9.43;2.45;;;2.90;91.20;;;;;;5062981;28;20259;-69
2021/04/07 00:37:11;;;;;;;6.95;1.95;;;2.90;91.40;;;;;;5059757;28;20281;-69
2021/04/07 00:39:56;;;;;;;4.68;1.65;;;2.90;91.30;;;;;;5064965;28;20290;-70
2021/04/07 00:42:46;;;;;;;8.18;1.88;;;3.00;91.20;;;;;;5066180;28;20231;-68
2021/04/07 00:45:32;;;;;;;4.05;1.60;;;3.10;91.20;;;;;;5061727;28;20204;-70
2021/04/07 00:48:18;;;;;;;5.18;1.50;;;3.10;91.40;;;;;;5060555;28;20293;-71
2021/04/07 00:51:04;;;;;;;5.30;1.83;;;3.10;90.90;;;;;;5059364;28;20212;-69
2021/04/07 00:53:49;;;;;;;3.72;2.65;;;3.10;90.80;;;;;;5060674;28;20242;-70
2021/04/07 00:56:34;;;;;;;2.65;1.80;;;3.20;90.50;;;;;;5066348;28;20243;-70
2021/04/07 00:59:21;;;;;;;3.00;1.73;;;3.30;90.10;;;;;;5061565;28;20231;-71
2021/04/07 01:02:07;;;;;;;4.80;2.22;;;3.20;90.10;;;;;;5062508;28;20219;-70
2021/04/07 01:04:53;;;;;;;5.60;2.20;;;3.10;90.50;;;;;;5064073;28;20255;-69
2021/04/07 01:07:38;;;;;;;3.95;1.90;;;3.10;90.30;;;;;;5062051;28;20271;-71
2021/04/07 01:10:24;;;;;;;5.93;1.90;;;3.20;90.90;;;;;;5066681;28;20207;-71
2021/04/07 01:13:09;;;;;;;4.65;2.00;;;3.00;90.70;;;;;;5063327;28;20220;-70
2021/04/07 01:15:54;;;;;;;2.83;1.65;;;3.20;90.50;;;;;;5064715;28;20212;-70
2021/04/07 01:18:41;;;;;;;5.35;1.80;;;3.10;90.00;;;;;;5057137;28;20247;-70
2021/04/07 01:21:25;;;;;;;2.78;1.70;;;3.10;90.20;;;;;;5056774;28;20208;-70
2021/04/07 01:24:12;;;;;;;7.43;2.50;;;3.00;90.90;;;;;;5062577;28;20300;-70
2021/04/07 01:26:57;;;;;;;7.15;2.20;;;3.00;90.70;;;;;;5066333;28;20294;-70
2021/04/07 01:29:42;;;;;;;5.25;2.00;;;3.00;90.50;;;;;;5067188;28;20250;-70
2021/04/07 01:32:27;;;;;;;5.15;2.20;;;3.00;90.50;;;;;;5053823;28;20849;-70
2021/04/07 01:35:14;;;;;;;3.90;1.88;;;3.10;90.80;;;;;;5056167;28;20212;-70
2021/04/07 01:37:59;;;;;;;3.67;2.47;;;2.90;90.20;;;;;;5059903;28;20200;-70
2021/04/07 01:40:46;;;;;;;3.65;2.60;;;3.00;90.40;;;;;;5060118;28;20296;-70
2021/04/07 01:43:32;;;;;;;7.25;2.00;;;3.10;90.20;;;;;;5055953;28;20705;-71
2021/04/07 01:46:17;;;;;;;7.43;2.47;;;3.00;90.30;;;;;;5061826;28;20254;-70
2021/04/07 01:49:04;;;;;;;3.90;2.03;;;3.10;90.60;;;;;;5059768;28;20250;-69
2021/04/07 01:51:49;;;;;;;4.55;1.95;;;3.10;90.40;;;;;;5061749;28;20219;-70
2021/04/07 01:54:35;;;;;;;4.85;2.00;;;3.00;90.30;;;;;;5060144;28;20285;-69
2021/04/07 01:57:21;;;;;;;4.57;2.05;;;2.80;90.50;;;;;;5055883;28;20200;-71
2021/04/07 02:00:09;;;;;;;7.28;2.47;;;2.90;91.00;;;;;;5062731;28;20286;-69
2021/04/07 02:02:54;;;;;;;2.97;2.22;;;2.90;91.30;;;;;;5064221;28;20303;-70
2021/04/07 02:05:39;;;;;;;3.35;2.40;;;2.80;91.30;;;;;;5057553;28;20215;-70
2021/04/07 02:08:24;;;;;;;5.80;2.83;;;2.90;91.80;;;;;;5062909;28;20207;-69
2021/04/07 02:11:09;;;;;;;3.13;2.20;;;3.00;91.90;;;;;;5055581;28;20201;-69
2021/04/07 02:13:55;;;;;;;3.35;1.90;;;3.10;92.00;;;;;;5059977;28;20603;-69
2021/04/07 02:16:40;;;;;;;5.85;2.25;;;3.00;90.70;;;;;;5060450;28;20565;-70
2021/04/07 02:19:26;;;;;;;6.72;2.60;;;3.00;91.30;;;;;;5055806;28;20228;-69
2021/04/07 02:22:13;;;;;;;3.70;2.15;;;3.00;91.60;;;;;;5054027;28;20733;-70
2021/04/07 02:24:58;;;;;;;4.20;2.22;;;2.90;92.40;;;;;;5059338;28;20251;-69
2021/04/07 02:27:43;;;;;;;4.55;2.10;;;2.90;92.20;;;;;;5058218;28;20204;-70
2021/04/07 02:30:29;;;;;;;5.13;2.15;;;2.90;93.40;;;;;;5057243;28;20252;-70
2021/04/07 02:33:15;;;;;;;9.88;1.90;;;2.90;92.50;;;;;;5053860;28;20266;-71
2021/04/07 02:36:00;;;;;;;6.28;2.42;;;3.00;93.20;;;;;;5055039;28;20224;-69
2021/04/07 02:38:45;;;;;;;7.85;2.78;;;3.10;92.70;;;;;;5062995;28;20269;-69
2021/04/07 02:41:31;;;;;;;3.53;2.50;;;3.10;91.90;;;;;;5060007;28;20735;-68
2021/04/07 02:44:16;;;;;;;6.28;2.47;;;3.00;91.40;;;;;;5057727;28;20223;-68
2021/04/07 02:47:02;;;;;;;6.82;2.17;;;3.00;92.20;;;;;;5059102;28;20261;-68
2021/04/07 02:49:47;;;;;;;7.50;2.40;;;2.90;92.40;;;;;;5063047;28;20600;-70
2021/04/07 02:52:32;;;;;;;5.90;2.35;;;2.90;92.30;;;;;;5058898;28;20753;-70
2021/04/07 02:55:18;;;;;;;6.30;2.40;;;3.00;92.50;;;;;;5055968;28;20689;-69
2021/04/07 02:58:02;;;;;;;7.15;2.55;;;3.00;92.30;;;;;;5053408;28;20270;-70
2021/04/07 03:00:47;;;;;;;5.78;2.25;;;2.90;92.20;;;;;;5058995;28;20208;-70
2021/04/07 03:03:33;;;;;;;3.17;2.10;;;3.00;92.40;;;;;;5058521;28;20374;-70
2021/04/07 03:06:18;;;;;;;6.25;3.15;;;3.10;92.40;;;;;;5068970;28;20216;-70
2021/04/07 03:09:04;;;;;;;5.22;2.55;;;3.00;91.90;;;;;;5057561;28;20208;-71
2021/04/07 03:11:49;;;;;;;4.03;2.60;;;3.00;92.40;;;;;;5072609;28;20203;-69
2021/04/07 03:14:34;;;;;;;4.03;2.25;;;3.00;92.40;;;;;;5070571;28;20216;-69
2021/04/07 03:17:19;;;;;;;5.30;2.45;;;3.00;93.20;;;;;;5062287;28;20213;-70
2021/04/07 03:20:07;;;;;;;10.30;2.33;;;2.90;93.20;;;;;;5068864;28;20261;-70
2021/04/07 03:22:52;;;;;;;4.95;2.47;;;2.90;94.10;;;;;;5062222;28;20236;-68
2021/04/07 03:25:37;;;;;;;8.43;2.75;;;2.90;94.00;;;;;;5067497;28;20249;-67
2021/04/07 03:28:24;;;;;;;5.30;2.90;;;2.90;94.50;;;;;;5065365;28;20566;-70
2021/04/07 03:31:09;;;;;;;5.47;2.90;;;2.80;95.00;;;;;;5068198;28;20223;-69
2021/04/07 03:33:54;;;;;;;6.57;3.03;;;2.80;95.30;;;;;;5060154;28;20737;-70
2021/04/07 03:36:40;;;;;;;6.22;2.70;;;2.80;96.00;;;;;;5070877;28;20212;-68
2021/04/07 03:39:25;;;;;;;6.95;3.03;;;2.70;96.80;;;;;;5060355;28;20211;-71
2021/04/07 03:42:10;;;;;;;4.75;2.75;;;2.70;96.30;;;;;;5064373;28;20733;-72
2021/04/07 03:44:55;;;;;;;7.38;2.88;;;2.50;97.50;;;;;;5062773;28;20245;-70
2021/04/07 03:47:40;;;;;;;6.45;3.58;;;2.50;98.90;;;;;;5063040;28;20220;-69
2021/04/07 03:50:25;;;;;;;5.22;2.83;;;2.40;99.20;;;;;;5066654;28;20208;-71
2021/04/07 03:53:13;;;;;;;9.63;2.80;;;2.50;99.30;;;;;;5066124;28;20274;-71
2021/04/07 03:55:58;;;;;;;6.05;2.85;;;2.50;99.60;;;;;;5066941;28;20580;-70
2021/04/07 03:58:43;;;;;;;7.00;2.22;;;2.60;98.70;;;;;;5062190;28;20224;-71
2021/04/07 04:01:28;;;;;;;4.78;3.20;;;2.50;98.50;;;;;;5066962;28;20618;-70
2021/04/07 04:04:14;;;;;;;5.78;2.83;;;2.60;98.90;;;;;;5067318;28;20224;-70
2021/04/07 04:06:59;;;;;;;6.93;2.50;;;2.60;99.20;;;;;;5062747;28;20203;-70
2021/04/07 04:09:44;;;;;;;10.52;2.85;;;2.70;98.30;;;;;;5063917;28;20272;-70
2021/04/07 04:12:29;;;;;;;4.18;2.47;;;2.70;98.60;;;;;;5067169;28;20220;-70
2021/04/07 04:15:15;;;;;;;5.93;2.45;;;2.80;98.70;;;;;;5063612;28;20201;-70
2021/04/07 04:18:01;;;;;;;7.55;2.30;;;2.80;99.10;;;;;;5059571;28;20614;-70
2021/04/07 04:20:46;;;;;;;9.30;3.00;;;2.60;98.50;;;;;;5060934;28;20223;-70
2021/04/07 04:23:31;;;;;;;4.32;2.30;;;2.50;99.60;;;;;;5061254;28;20593;-70
2021/04/07 04:26:17;;;;;;;6.03;2.80;;;2.40;99.90;;;;;;5060530;28;20908;-70
2021/04/07 04:29:02;;;;;;;5.28;2.35;;;2.30;99.90;;;;;;5060865;28;20287;-69
2021/04/07 04:31:47;;;;;;;4.18;2.33;;;2.40;99.90;;;;;;5058333;28;20263;-70
2021/04/07 04:34:32;;;;;;;4.25;2.20;;;2.40;99.90;;;;;;5061829;28;20704;-69
2021/04/07 04:37:17;;;;;;;7.78;2.78;;;2.50;99.90;;;;;;5066274;28;20242;-70
2021/04/07 04:40:04;;;;;;;10.43;2.65;;;2.50;99.90;;;;;;5061339;28;20249;-70
2021/04/07 04:42:50;;;;;;;4.00;2.40;;;2.60;99.90;;;;;;5064294;28;20228;-70
2021/04/07 04:45:36;;;;;;;6.85;2.63;;;2.50;99.90;;;;;;5059809;28;20204;-70
2021/04/07 04:48:21;;;;;;;8.45;2.47;;;2.50;99.90;;;;;;5064889;28;20635;-70
2021/04/07 04:51:07;;;;;;;6.32;3.00;;;2.50;99.90;;;;;;5062027;28;20204;-71
2021/04/07 04:53:52;;;;;;;7.43;2.83;;;2.30;99.90;;;;;;5060287;28;20757;-70
2021/04/07 04:56:38;;;;;;;6.45;2.38;;;2.20;99.90;;;;;;5059483;28;20248;-70
2021/04/07 04:59:24;;;;;;;8.32;2.75;;;2.30;99.90;;;;;;5059353;28;20212;-70
2021/04/07 05:02:09;;;;;;;9.13;3.10;;;2.50;99.90;;;;;;5059217;28;20690;-70
2021/04/07 05:04:54;;;;;;;4.50;2.60;;;2.50;99.90;;;;;;5065713;28;20219;-70
2021/04/07 05:07:39;;;;;;;6.38;2.70;;;2.40;99.90;;;;;;5063935;28;20709;-70
2021/04/07 05:10:24;;;;;;;3.90;2.55;;;2.40;99.90;;;;;;5063077;28;20282;-70
2021/04/07 05:13:09;;;;;;;7.03;2.40;;;2.40;99.90;;;;;;5064495;28;20235;-70
2021/04/07 05:15:55;;;;;;;8.02;2.70;;;2.40;99.90;;;;;;5062174;28;20259;-70
2021/04/07 05:18:40;;;;;;;5.78;3.15;;;2.40;99.90;;;;;;5058771;28;20213;-71
2021/04/07 05:21:25;;;;;;;10.88;2.60;;;2.40;99.90;;;;;;5056049;28;20570;-70
2021/04/07 05:24:10;;;;;;;6.63;2.80;;;2.40;99.90;;;;;;5064660;28;20699;-70
2021/04/07 05:26:55;;;;;;;4.70;2.33;;;2.40;99.90;;;;;;5059189;28;20243;-70
2021/04/07 05:29:40;;;;;;;8.65;2.80;;;2.40;99.90;;;;;;5061862;28;20358;-70
2021/04/07 05:32:26;;;;;;;8.10;3.00;;;2.40;99.90;;;;;;5059215;28;20216;-70
2021/04/07 05:35:13;;;;;;;6.85;2.53;;;2.40;99.40;;;;;;5059686;28;20244;-69
2021/04/07 05:37:58;;;;;;;9.60;2.45;;;2.40;99.90;;;;;;5059260;28;20247;-69
2021/04/07 05:40:43;;;;;;;4.53;2.35;;;2.50;99.00;;;;;;5061814;28;20228;-70
2021/04/07 05:43:30;;;;;;;10.55;2.40;;;2.50;98.50;;;;;;5064011;28;20325;-70
2021/04/07 05:46:15;;;;;;;6.38;2.67;;;2.40;98.00;;;;;;5058850;28;20223;-70
2021/04/07 05:49:00;;;;;;;13.48;2.25;;;2.30;98.00;;;;;;5062955;28;20213;-70
2021/04/07 05:51:46;;;;;;;12.82;2.25;;;2.20;98.40;;;;;;5064328;28;20211;-70
2021/04/07 05:54:31;;;;;;;5.82;1.75;;;2.20;99.30;;;;;;5061638;28;20204;-71
2021/04/07 05:57:16;;;;;;;7.05;1.70;;;2.40;98.40;;;;;;5058693;28;20693;-71
2021/04/07 06:00:01;;;;;;;5.30;2.00;;;2.50;98.70;;;;;;5066317;28;20200;-70
2021/04/07 06:02:46;;;;;;;3.67;1.73;;;2.60;98.50;;;;;;5053383;28;20780;-70
2021/04/07 06:05:32;;;;;;;5.45;2.15;;;2.60;96.70;;;;;;5062289;28;20207;-68
2021/04/07 06:08:18;;;;;;;12.38;2.60;;;2.60;96.10;;;;;;5056410;28;20280;-68
2021/04/07 06:11:04;;;;;;;6.28;2.38;;;2.60;96.20;;;;;;5058289;28;20290;-68
2021/04/07 06:13:49;;;;;;;7.57;1.90;;;2.70;96.20;;;;;;5058548;28;20227;-70
2021/04/07 06:16:35;;;;;;;8.05;2.00;;;2.70;95.20;;;;;;5059287;28;20200;-71
2021/04/07 06:19:20;;;;;;;9.20;2.03;;;2.70;95.00;;;;;;5065606;28;20204;-69
2021/04/07 06:22:06;;;;;;;6.25;2.30;;;2.60;94.90;;;;;;5060377;28;20297;-71
2021/04/07 06:24:51;;;;;;;8.55;2.00;;;2.60;95.70;;;;;;5059644;28;20200;-70
2021/04/07 06:27:36;;;;;;;6.05;2.05;;;2.60;96.00;;;;;;5060394;28;20201;-70
2021/04/07 06:30:24;;;;;;;5.20;2.13;;;2.60;94.90;;;;;;5064686;28;20276;-70
2021/04/07 06:33:11;;;;;;;5.70;1.90;;;2.70;95.90;;;;;;5062729;28;20258;-70
2021/04/07 06:35:58;;;;;;;7.75;2.42;;;2.70;95.30;;;;;;5056685;28;20220;-69
2021/04/07 06:38:44;;;;;;;4.18;2.03;;;2.80;95.00;;;;;;5065056;28;20286;-69
2021/04/07 06:41:29;;;;;;;4.45;1.88;;;2.70;94.00;;;;;;5063065;28;20212;-70
2021/04/07 06:44:15;;;;;;;8.30;2.58;;;2.80;94.30;;;;;;5062291;28;20282;-71
2021/04/07 06:47:01;;;;;;;4.28;1.90;;;2.90;94.00;;;;;;5061521;28;20348;-72
2021/04/07 06:49:49;;;;;;;5.80;2.30;;;2.90;93.20;;;;;;5056903;28;20689;-70
2021/04/07 06:52:34;;;;;;;7.30;2.55;;;3.00;93.20;;;;;;5061173;28;20216;-70
2021/04/07 06:55:21;;;;;;;7.95;2.08;;;3.10;93.10;;;;;;5061238;28;20200;-70
2021/04/07 06:58:08;;;;;;;8.80;2.28;;;3.10;92.50;;;;;;5058136;28;20343;-71
2021/04/07 07:00:54;;;;;;;4.95;2.00;;;3.20;92.40;;;;;;5058974;28;20228;-71
2021/04/07 07:03:39;;;;;;;8.68;2.28;;;3.20;92.20;;;;;;5052917;28;20279;-70
2021/04/07 07:06:25;;;;;;;9.25;3.22;;;3.30;92.70;;;;;;5058597;28;20302;-71
2021/04/07 07:09:17;;;;;;;12.00;2.10;;;3.30;91.70;;;;;;5062394;28;20288;-71
2021/04/07 07:12:05;;;;;;;4.50;2.30;;;3.30;91.50;;;;;;5065452;28;20560;-70
2021/04/07 07:14:50;;;;;;;4.82;2.08;;;3.10;91.00;;;;;;5061172;28;20207;-70
2021/04/07 07:17:36;;;;;;;4.40;2.08;;;3.10;92.20;;;;;;5062067;28;20200;-71
2021/04/07 07:20:27;;;;;;;11.10;2.08;;;3.10;91.70;;;;;;5053318;28;20208;-70
2021/04/07 07:23:21;;;;;;;6.22;2.15;;;3.20;91.60;;;;;;5054695;28;20228;-70
2021/04/07 07:26:08;;;;;;;13.75;2.75;;;3.30;91.90;;;;;;5058941;28;20208;-69
2021/04/07 07:28:59;;;;;;;6.20;2.60;;;3.40;92.30;;;;;;5054887;28;20631;-71
2021/04/07 07:31:43;;;;;;;7.40;2.70;;;3.50;92.00;;;;;;5058528;28;20293;-70
2021/04/07 07:34:29;;;;;;;5.78;2.90;;;3.40;92.00;;;;;;5055415;28;20244;-70
2021/04/07 07:37:24;;;;;;;6.72;3.13;;;3.40;92.10;;;;;;5059564;28;20204;-71
2021/04/07 07:40:25;;;;;;;6.50;2.83;;;3.40;91.50;;;;;;5054110;28;20251;-71
2021/04/07 07:43:10;;;;;;;4.75;2.95;;;3.20;91.20;;;;;;5061452;28;20749;-71
2021/04/07 07:45:56;;;;;;;9.85;3.17;;;3.30;92.50;;;;;;5055920;28;20223;-70
2021/04/07 07:48:42;;;;;;;9.68;2.72;;;3.40;92.60;;;;;;5060562;28;20204;-71
2021/04/07 07:51:28;;;;;;;7.47;3.38;;;3.60;92.50;;;;;;5061527;28;20216;-70
2021/04/07 07:54:15;;;;;;;8.25;2.75;;;3.60;92.00;;;;;;5056584;28;20720;-71
2021/04/07 07:57:11;;;;;;;7.75;3.30;;;3.50;91.70;;;;;;5054765;28;20201;-69
2021/04/07 08:00:06;;;;;;;6.85;3.60;;;3.60;92.00;;;;;;5066536;28;20285;-69
2021/04/07 08:02:53;;;;;;;10.15;3.00;;;3.40;92.10;;;;;;5061108;28;20247;-71
2021/04/07 08:05:40;;;;;;;6.70;2.65;;;3.50;92.10;;;;;;5062072;28;20208;-70
2021/04/07 08:08:25;;;;;;;9.88;3.58;;;3.60;91.90;;;;;;5058764;28;20686;-71
2021/04/07 08:11:10;;;;;;;8.85;3.28;;;3.70;92.60;;;;;;5062113;28;20700;-71
2021/04/07 08:13:56;;;;;;;6.65;3.55;;;3.70;91.60;;;;;;5065277;28;20661;-70
2021/04/07 08:16:43;;;;;;;9.93;2.78;;;3.60;92.50;;;;;;5061839;28;20205;-71
2021/04/07 08:19:32;;;;;;;8.43;3.05;;;3.50;91.50;;;;;;5060084;28;20224;-71
2021/04/07 08:22:18;;;;;;;4.32;3.15;;;3.50;92.30;;;;;;5059909;28;20314;-71
2021/04/07 08:25:04;;;;;;;16.00;2.78;;;3.50;93.20;;;;;;5062847;28;20204;-71
2021/04/07 08:27:52;;;;;;;6.63;2.95;;;3.70;93.50;;;;;;5062980;28;20203;-71
2021/04/07 08:30:37;;;;;;;9.25;2.90;;;3.60;93.20;;;;;;5060038;28;20205;-70
2021/04/07 08:33:23;;;;;;;4.15;2.50;;;3.70;93.70;;;;;;5057214;28;20236;-71
2021/04/07 08:36:10;;;;;;;6.57;2.95;;;3.70;92.70;;;;;;5064519;28;20667;-72
2021/04/07 08:39:04;;;;;;;6.60;3.72;;;3.90;93.10;;;;;;5062971;28;20208;-73
2021/04/07 08:41:49;;;;;;;7.90;3.35;;;3.90;92.30;;;;;;5063549;28;20725;-71
2021/04/07 08:44:34;;;;;;;11.40;2.97;;;3.90;92.60;;;;;;5058096;28;20250;-71
2021/04/07 08:47:25;;;;;;;5.10;2.65;;;3.90;91.70;;;;;;5054915;28;20213;-70
2021/04/07 08:50:12;;;;;;;5.90;3.05;;;3.70;91.60;;;;;;5057848;28;20217;-70
2021/04/07 08:52:59;;;;;;;9.55;2.65;;;3.80;92.10;;;;;;5061050;28;20239;-71
2021/04/07 08:55:52;;;;;;;16.52;3.55;;;4.00;92.30;;;;;;5060339;28;20212;-72
2021/04/07 08:58:49;;;;;;;9.73;3.35;;;4.00;92.00;;;;;;5064716;28;20208;-71
2021/04/07 09:01:35;;;;;;;7.57;3.42;;;4.10;92.60;;;;;;5055572;28;20318;-71
2021/04/07 09:04:21;;;;;;;12.07;3.65;;;4.30;91.80;;;;;;5063734;28;20263;-70
2021/04/07 09:07:12;;;;;;;7.78;4.03;;;4.30;91.80;;;;;;5060422;28;20204;-72
2021/04/07 09:10:07;;;;;;;8.68;4.15;;;4.40;91.30;;;;;;5064092;28;20680;-72
2021/04/07 09:12:54;;;;;;;12.13;4.05;;;4.50;91.40;;;;;;5063874;28;20220;-71
2021/04/07 09:15:53;;;;;;;5.70;2.83;;;4.40;91.30;;;;;;5063239;28;20434;-72
2021/04/07 09:18:39;;;;;;;7.95;3.25;;;4.50;91.90;;;;;;5061207;28;20728;-71
2021/04/07 09:21:25;;;;;;;5.80;2.90;;;4.60;90.40;;;;;;5065809;28;20227;-72
2021/04/07 09:24:18;;;;;;;9.75;3.30;;;4.60;90.00;;;;;;5064627;28;20227;-72
2021/04/07 09:27:06;;;;;;;5.15;3.97;;;4.50;89.50;;;;;;5063939;28;20216;-72
2021/04/07 09:29:51;;;;;;;10.90;3.83;;;4.50;90.40;;;;;;5067452;28;20200;-71
2021/04/07 09:32:39;;;;;;;6.50;3.13;;;4.40;90.90;;;;;;5066671;28;20219;-72
2021/04/07 09:35:24;;;;;;;6.10;2.65;;;4.40;90.30;;;;;;5068445;28;20197;-71
2021/04/07 09:38:14;;;;;;;6.75;2.95;;;4.50;91.00;;;;;;5064123;28;20710;-71
2021/04/07 09:41:04;;;;;;;10.00;3.40;;;4.60;89.80;;;;;;5063966;28;20266;-71
2021/04/07 09:43:51;;;;;;;8.13;3.33;;;4.60;89.10;;;;;;5062662;28;20228;-72
2021/04/07 09:46:37;;;;;;;7.85;3.50;;;4.60;89.40;;;;;;5061498;28;20339;-72
2021/04/07 09:49:24;;;;;;;10.85;3.80;;;4.60;90.00;;;;;;5059777;28;20204;-72
2021/04/07 09:52:09;;;;;;;9.13;3.33;;;4.70;90.40;;;;;;5066264;28;20344;-72
2021/04/07 09:54:54;;;;;;;7.32;2.75;;;4.80;87.10;;;;;;5055882;28;20680;-72
2021/04/07 09:57:39;;;;;;;20.42;4.30;;;4.80;87.80;;;;;;5064235;28;20990;-72
2021/04/07 10:00:30;;;;;;;15.40;3.40;;;4.90;84.30;;;;;;5061353;28;20255;-72
2021/04/07 10:03:16;;;;;;;8.45;3.30;;;5.00;84.00;;;;;;5063863;28;20273;-73
2021/04/07 10:06:02;;;;;;;13.25;3.00;;;5.20;82.40;;;;;;5064803;28;20203;-73
2021/04/07 10:08:57;;;;;;;7.70;3.47;;;5.30;80.80;;;;;;5055330;28;20232;-73
2021/04/07 10:11:43;;;;;;;8.47;3.50;;;5.00;79.20;;;;;;5065071;28;20215;-73
2021/04/07 10:14:29;;;;;;;11.68;3.65;;;5.00;79.60;;;;;;5066093;28;20534;-72
2021/04/07 10:17:16;;;;;;;13.60;3.83;;;5.10;81.60;;;;;;5063119;28;20250;-72
2021/04/07 10:20:07;;;;;;;8.10;3.35;;;5.20;82.00;;;;;;5060953;28;20196;-72
2021/04/07 10:22:55;;;;;;;11.30;2.97;;;5.30;81.80;;;;;;5063484;28;20278;-71
2021/04/07 10:25:40;;;;;;;7.88;3.38;;;5.40;79.50;;;;;;5059440;28;20220;-72
2021/04/07 10:28:25;;;;;;;7.20;3.47;;;5.50;80.60;;;;;;5061130;28;20633;-70
2021/04/07 10:31:11;;;;;;;11.93;3.53;;;5.50;74.40;;;;;;5059227;28;20741;-72
2021/04/07 10:34:09;;;;;;;5.60;3.10;;;5.50;73.20;;;;;;5065686;28;20823;-72
2021/04/07 10:36:54;;;;;;;9.50;4.03;;;5.10;81.90;;;;;;5063750;28;20240;-71
2021/04/07 10:39:41;;;;;;;12.52;3.30;;;4.80;90.10;;;;;;5062542;28;20254;-72
2021/04/07 10:42:29;;;;;;;14.02;3.65;;;4.60;91.60;;;;;;5062397;28;20282;-71
2021/04/07 10:45:17;;;;;;;6.32;3.67;;;4.40;92.00;;;;;;5063704;28;20215;-71
2021/04/07 10:48:03;;;;;;;13.07;3.58;;;4.40;92.10;;;;;;5064701;28;20575;-71
2021/04/07 10:50:49;;;;;;;14.48;2.75;;;4.40;91.70;;;;;;5062863;28;20285;-72
2021/04/07 10:53:37;;;;;;;9.95;2.55;;;4.40;91.40;;;;;;5059595;28;20262;-70
2021/04/07 10:56:23;;;;;;;7.65;3.53;;;4.40;92.20;;;;;;5059171;28;20569;-71
2021/04/07 10:59:12;;;;;;;13.60;3.53;;;4.50;91.90;;;;;;5058309;28;20220;-71
2021/04/07 11:01:57;;;;;;;10.35;3.50;;;4.50;94.60;;;;;;5062959;28;20619;-71
2021/04/07 11:04:43;;;;;;;10.98;3.22;;;4.30;98.20;;;;;;5063206;28;20208;-72
2021/04/07 11:07:29;;;;;;;7.80;3.58;;;4.20;99.90;;;;;;5063623;28;20682;-72
2021/04/07 11:10:15;;;;;;;7.35;3.60;;;4.30;99.90;;;;;;5055021;28;20201;-71
2021/04/07 11:13:00;;;;;;;6.90;3.13;;;4.20;99.90;;;;;;5071424;28;20294;-73
2021/04/07 11:15:46;;;;;;;14.68;3.85;;;4.10;99.90;;;;;;5065061;28;20584;-72
2021/04/07 11:18:31;;;;;;;9.73;3.45;;;3.90;99.90;;;;;;5073423;28;20333;-71
2021/04/07 11:21:17;;;;;;;7.50;3.90;;;3.80;99.90;;;;;;5069117;28;20279;-71
2021/04/07 11:24:03;;;;;;;10.65;3.90;;;3.80;99.90;;;;;;5059959;28;20740;-71
2021/04/07 11:26:48;;;;;;;13.60;3.70;;;3.80;99.90;;;;;;5058017;28;20201;-71
2021/04/07 11:29:36;;;;;;;9.30;3.22;;;3.70;99.90;;;;;;5056769;28;20208;-71
2021/04/07 11:32:21;;;;;;;13.43;4.43;;;3.50;99.90;;;;;;5058999;28;20213;-70
2021/04/07 11:35:12;;;;;;;14.23;4.05;;;3.30;99.90;;;;;;5064851;28;20204;-71
2021/04/07 11:37:59;;;;;;;8.73;4.15;;;3.30;99.90;;;;;;5061585;28;20283;-71
2021/04/07 11:41:01;;;;;;;8.60;3.78;;;3.30;99.90;;;;;;5073059;28;20248;-71
2021/04/07 11:46:51;;;;;;;10.48;3.40;;;3.30;99.90;;;;;;5074331;28;20735;-72
2021/04/07 11:49:36;;;;;;;10.80;3.72;;;3.30;99.90;;;;;;5071266;28;20228;-73
2021/04/07 11:52:21;;;;;;;6.50;3.13;;;3.40;99.90;;;;;;5067345;28;20216;-71
2021/04/07 11:55:07;;;;;;;11.30;3.75;;;3.40;99.90;;;;;;5066616;28;21069;-72
2021/04/07 11:57:53;;;;;;;10.43;3.63;;;3.40;99.90;;;;;;5064960;28;20273;-72
2021/04/07 12:00:38;;;;;;;5.53;3.40;;;3.50;99.90;;;;;;5062455;28;20546;-71
2021/04/07 12:03:24;;;;;;;26.02;4.05;;;3.50;99.90;;;;;;5066423;28;20289;-72
2021/04/07 12:06:09;;;;;;;11.68;3.72;;;3.60;99.90;;;;;;5064228;28;20245;-72
2021/04/07 12:08:54;;;;;;;8.07;4.00;;;3.70;99.90;;;;;;5062216;28;20239;-71
2021/04/07 12:11:39;;;;;;;10.52;3.25;;;3.70;99.90;;;;;;5065710;28;20638;-70
2021/04/07 12:14:25;;;;;;;5.80;3.38;;;3.80;99.90;;;;;;5063847;28;20342;-71
2021/04/07 12:17:10;;;;;;;10.55;4.07;;;3.80;99.90;;;;;;5067375;28;20242;-71
2021/04/07 12:19:55;;;;;;;8.35;3.40;;;4.00;99.90;;;;;;5064708;28;20293;-71
2021/04/07 12:22:42;;;;;;;7.47;3.90;;;4.00;99.90;;;;;;5062624;28;20283;-73
2021/04/07 12:25:27;;;;;;;11.10;6.50;;;3.90;99.90;;;;;;5059490;28;20207;-71
2021/04/07 12:28:13;;;;;;;9.05;5.15;;;4.00;99.90;;;;;;5061536;28;20678;-72
2021/04/07 12:30:59;;;;;;;6.57;3.85;;;4.10;99.90;;;;;;5068928;28;20200;-71
2021/04/07 12:33:50;;;;;;;6.60;3.28;;;4.00;99.90;;;;;;5056877;28;20219;-70
2021/04/07 12:36:35;;;;;;;7.32;3.17;;;4.10;99.90;;;;;;5059020;28;21506;-70
2021/04/07 12:39:23;;;;;;;10.30;3.80;;;4.20;99.90;;;;;;5061409;28;20271;-70
2021/04/07 12:42:14;;;;;;;4.53;2.25;;;4.20;99.90;;;;;;5060725;28;20243;-72
2021/04/07 12:44:59;;;;;;;7.60;3.55;;;4.20;99.90;;;;;;5056968;28;20207;-71
2021/04/07 12:47:45;;;;;;;6.88;2.42;;;4.10;99.90;;;;;;5059097;28;20210;-72
2021/04/07 12:50:30;;;;;;;12.43;3.70;;;4.30;99.90;;;;;;5058339;28;20208;-68
2021/04/07 12:53:15;;;;;;;7.13;3.80;;;4.40;99.90;;;;;;5057642;28;20228;-69
2021/04/07 12:56:00;;;;;;;6.03;3.03;;;4.60;99.90;;;;;;5056035;28;20985;-68
2021/04/07 12:58:47;;;;;;;3.40;2.47;;;4.70;99.90;;;;;;5056439;28;20204;-70
2021/04/07 13:01:32;;;;;;;6.13;2.72;;;4.60;99.90;;;;;;5063990;28;20216;-70
2021/04/07 13:04:18;;;;;;;11.27;2.75;;;4.50;99.90;;;;;;5065809;28;20657;-71
2021/04/07 13:07:03;;;;;;;8.98;3.70;;;4.30;99.90;;;;;;5061911;28;20204;-69
2021/04/07 13:09:50;;;;;;;5.88;2.60;;;4.30;99.90;;;;;;5059562;28;20256;-70
2021/04/07 13:12:35;;;;;;;5.63;2.50;;;4.30;99.90;;;;;;5062557;28;20278;-71
2021/04/07 13:15:20;;;;;;;6.15;2.80;;;4.30;99.90;;;;;;5058432;28;20276;-71
2021/04/07 13:18:06;;;;;;;8.25;3.25;;;4.30;99.90;;;;;;5061089;28;20204;-71
2021/04/07 13:20:58;;;;;;;3.75;2.33;;;4.20;99.90;;;;;;5058705;28;20624;-72
2021/04/07 13:23:43;;;;;;;9.98;3.67;;;3.80;99.90;;;;;;5062992;28;20231;-71
2021/04/07 13:26:28;;;;;;;5.88;3.53;;;3.40;99.90;;;;;;5063851;28;20220;-69
2021/04/07 13:29:13;;;;;;;5.65;3.13;;;3.30;99.90;;;;;;5055086;28;20211;-71
2021/04/07 13:31:58;;;;;;;7.35;3.53;;;3.30;99.90;;;;;;5057026;28;20212;-69
2021/04/07 13:34:50;;;;;;;6.28;5.55;;;3.40;99.90;;;;;;5061520;28;20288;-70
2021/04/07 13:37:45;;;;;;;7.03;3.13;;;3.50;99.90;;;;;;5062530;28;20655;-71
2021/04/07 13:40:34;;;;;;;6.53;3.70;;;3.50;99.90;;;;;;5058840;28;20236;-70
2021/04/07 13:43:20;;;;;;;8.60;4.03;;;3.60;99.90;;;;;;5060316;28;20275;-70
2021/04/07 13:46:05;;;;;;;5.05;3.53;;;3.50;99.90;;;;;;5061786;28;20224;-70
2021/04/07 13:48:51;;;;;;;9.25;4.00;;;3.40;99.90;;;;;;5060878;28;20694;-70
2021/04/07 13:51:37;;;;;;;7.60;4.25;;;3.40;99.90;;;;;;5061890;28;20209;-70
2021/04/07 13:54:23;;;;;;;9.00;3.75;;;3.30;99.90;;;;;;5065700;28;20280;-70
2021/04/07 13:57:17;;;;;;;6.07;3.50;;;3.40;99.90;;;;;;5061524;28;20217;-70
2021/04/07 14:00:06;;;;;;;4.85;3.65;;;3.40;99.90;;;;;;5060725;28;20690;-70
2021/04/07 14:02:51;;;;;;;5.78;3.60;;;3.30;99.90;;;;;;5061344;28;20239;-70
2021/04/07 14:05:36;;;;;;;11.13;4.93;;;3.20;99.90;;;;;;5061085;28;20641;-70
2021/04/07 14:08:21;;;;;;;12.50;5.65;;;3.10;99.90;;;;;;5060819;28;20714;-70
2021/04/07 14:11:08;;;;;;;8.98;5.63;;;3.00;99.90;;;;;;5064551;28;20219;-70
2021/04/07 14:13:53;;;;;;;14.07;4.80;;;2.90;99.90;;;;;;5060662;28;20334;-70
2021/04/07 14:16:38;;;;;;;5.38;4.20;;;2.90;99.90;;;;;;5058570;28;20203;-71
2021/04/07 14:19:23;;;;;;;9.20;4.30;;;2.80;99.90;;;;;;5052545;28;20319;-70
2021/04/07 14:22:08;;;;;;;7.85;4.95;;;3.00;99.90;;;;;;5057325;28;20200;-71
2021/04/07 14:24:54;;;;;;;6.40;3.83;;;3.10;99.90;;;;;;5052541;28;20203;-71
2021/04/07 14:27:41;;;;;;;8.10;4.90;;;3.20;99.90;;;;;;5059844;28;20216;-71
2021/04/07 14:30:28;;;;;;;11.57;5.07;;;3.00;99.90;;;;;;5057620;28;20246;-72
2021/04/07 14:33:15;;;;;;;10.23;4.60;;;3.00;99.90;;;;;;5061424;28;20263;-71
2021/04/07 14:35:59;;;;;;;7.95;4.80;;;3.00;99.90;;;;;;5058377;28;20208;-72
2021/04/07 14:38:44;;;;;;;5.85;5.15;;;3.00;99.90;;;;;;5052838;28;20207;-71